sensor_id;sensor_type;location;lat;lon;timestamp;P1;durP1;ratioP1;P2;durP2;ratioP2
35434;SDS011;21556;55.782;37.528;2023-08-31T00:01:35;10.38;;;7.07;;
35434;SDS011;21556;55.782;37.528;2023-08-31T00:04:01;15.02;;;7.30;;
35434;SDS011;21556;55.782;37.528;2023-08-31T00:06:29;10.75;;;6.63;;
35434;SDS011;21556;55.782;37.528;2023-08-31T00:08:55;11.73;;;6.85;;
35434;SDS011;21556;55.782;37.528;2023-08-31T00:11:21;10.23;;;7.10;;
35434;SDS011;21556;55.782;37.528;2023-08-31T00:13:49;11.38;;;6.93;;
35434;SDS011;21556;55.782;37.528;2023-08-31T00:16:15;10.73;;;7.53;;
35434;SDS011;21556;55.782;37.528;2023-08-31T00:18:42;13.70;;;7.13;;
35434;SDS011;21556;55.782;37.528;2023-08-31T00:21:07;11.13;;;7.65;;
35434;SDS011;21556;55.782;37.528;2023-08-31T00:23:34;10.48;;;7.50;;
35434;SDS011;21556;55.782;37.528;2023-08-31T00:26:03;9.30;;;8.15;;
35434;SDS011;21556;55.782;37.528;2023-08-31T00:28:29;11.27;;;7.63;;
35434;SDS011;21556;55.782;37.528;2023-08-31T00:30:55;11.98;;;8.45;;
35434;SDS011;21556;55.782;37.528;2023-08-31T00:33:21;11.27;;;8.05;;
35434;SDS011;21556;55.782;37.528;2023-08-31T00:35:47;12.50;;;7.50;;
35434;SDS011;21556;55.782;37.528;2023-08-31T00:38:13;10.05;;;7.30;;
35434;SDS011;21556;55.782;37.528;2023-08-31T00:40:40;11.95;;;7.78;;
35434;SDS011;21556;55.782;37.528;2023-08-31T00:43:10;11.68;;;7.53;;
35434;SDS011;21556;55.782;37.528;2023-08-31T00:45:37;11.38;;;8.60;;
35434;SDS011;21556;55.782;37.528;2023-08-31T00:48:07;10.43;;;7.68;;
35434;SDS011;21556;55.782;37.528;2023-08-31T00:50:34;13.27;;;8.82;;
35434;SDS011;21556;55.782;37.528;2023-08-31T00:53:03;13.25;;;7.93;;
35434;SDS011;21556;55.782;37.528;2023-08-31T00:55:31;10.98;;;7.70;;
35434;SDS011;21556;55.782;37.528;2023-08-31T00:57:58;13.02;;;8.00;;
35434;SDS011;21556;55.782;37.528;2023-08-31T01:00:27;12.63;;;8.40;;
35434;SDS011;21556;55.782;37.528;2023-08-31T01:03:09;13.45;;;8.48;;
35434;SDS011;21556;55.782;37.528;2023-08-31T01:09:15;12.98;;;8.27;;
35434;SDS011;21556;55.782;37.528;2023-08-31T01:11:31;13.40;;;8.35;;
35434;SDS011;21556;55.782;37.528;2023-08-31T01:14:07;14.77;;;8.27;;
35434;SDS011;21556;55.782;37.528;2023-08-31T01:16:37;9.80;;;8.32;;
35434;SDS011;21556;55.782;37.528;2023-08-31T01:19:08;11.45;;;9.02;;
35434;SDS011;21556;55.782;37.528;2023-08-31T01:21:57;14.80;;;9.75;;
35434;SDS011;21556;55.782;37.528;2023-08-31T01:24:30;15.68;;;9.75;;
35434;SDS011;21556;55.782;37.528;2023-08-31T01:26:57;13.47;;;9.97;;
35434;SDS011;21556;55.782;37.528;2023-08-31T01:29:23;18.45;;;11.05;;
35434;SDS011;21556;55.782;37.528;2023-08-31T01:31:49;14.57;;;12.07;;
35434;SDS011;21556;55.782;37.528;2023-08-31T01:34:15;19.80;;;12.05;;
35434;SDS011;21556;55.782;37.528;2023-08-31T01:36:43;14.38;;;11.77;;
35434;SDS011;21556;55.782;37.528;2023-08-31T01:39:16;16.60;;;13.40;;
35434;SDS011;21556;55.782;37.528;2023-08-31T01:41:53;16.33;;;11.77;;
35434;SDS011;21556;55.782;37.528;2023-08-31T01:44:22;15.98;;;12.02;;
35434;SDS011;21556;55.782;37.528;2023-08-31T01:46:51;16.15;;;11.88;;
35434;SDS011;21556;55.782;37.528;2023-08-31T01:49:23;14.38;;;10.50;;
35434;SDS011;21556;55.782;37.528;2023-08-31T01:51:52;20.20;;;11.15;;
35434;SDS011;21556;55.782;37.528;2023-08-31T01:54:20;17.75;;;11.30;;
35434;SDS011;21556;55.782;37.528;2023-08-31T01:56:46;12.90;;;10.30;;
35434;SDS011;21556;55.782;37.528;2023-08-31T01:59:13;15.68;;;10.68;;
35434;SDS011;21556;55.782;37.528;2023-08-31T02:01:39;14.38;;;11.38;;
35434;SDS011;21556;55.782;37.528;2023-08-31T02:04:05;17.23;;;10.55;;
35434;SDS011;21556;55.782;37.528;2023-08-31T02:06:37;13.40;;;10.25;;
35434;SDS011;21556;55.782;37.528;2023-08-31T02:09:03;16.55;;;11.27;;
35434;SDS011;21556;55.782;37.528;2023-08-31T02:11:29;13.23;;;9.93;;
35434;SDS011;21556;55.782;37.528;2023-08-31T02:13:57;15.45;;;11.52;;
35434;SDS011;21556;55.782;37.528;2023-08-31T02:16:24;19.08;;;9.30;;
35434;SDS011;21556;55.782;37.528;2023-08-31T02:18:50;12.13;;;9.85;;
35434;SDS011;21556;55.782;37.528;2023-08-31T02:21:16;11.32;;;8.95;;
35434;SDS011;21556;55.782;37.528;2023-08-31T02:23:43;15.43;;;10.35;;
35434;SDS011;21556;55.782;37.528;2023-08-31T02:26:12;13.35;;;9.85;;
35434;SDS011;21556;55.782;37.528;2023-08-31T02:28:38;13.80;;;10.18;;
35434;SDS011;21556;55.782;37.528;2023-08-31T02:31:09;15.68;;;10.10;;
35434;SDS011;21556;55.782;37.528;2023-08-31T02:33:36;18.60;;;10.35;;
35434;SDS011;21556;55.782;37.528;2023-08-31T02:36:03;15.25;;;9.82;;
35434;SDS011;21556;55.782;37.528;2023-08-31T02:38:29;15.40;;;11.00;;
35434;SDS011;21556;55.782;37.528;2023-08-31T02:40:55;12.88;;;10.30;;
35434;SDS011;21556;55.782;37.528;2023-08-31T02:43:25;15.80;;;9.40;;
35434;SDS011;21556;55.782;37.528;2023-08-31T02:46:01;15.45;;;11.02;;
35434;SDS011;21556;55.782;37.528;2023-08-31T02:48:29;14.13;;;10.50;;
35434;SDS011;21556;55.782;37.528;2023-08-31T02:50:57;12.80;;;9.68;;
35434;SDS011;21556;55.782;37.528;2023-08-31T02:53:27;15.27;;;10.48;;
35434;SDS011;21556;55.782;37.528;2023-08-31T02:55:53;16.20;;;10.43;;
35434;SDS011;21556;55.782;37.528;2023-08-31T02:58:20;15.77;;;10.20;;
35434;SDS011;21556;55.782;37.528;2023-08-31T03:00:46;12.98;;;10.35;;
35434;SDS011;21556;55.782;37.528;2023-08-31T03:03:16;18.13;;;10.82;;
35434;SDS011;21556;55.782;37.528;2023-08-31T03:05:46;13.73;;;10.32;;
35434;SDS011;21556;55.782;37.528;2023-08-31T03:08:12;16.00;;;11.02;;
35434;SDS011;21556;55.782;37.528;2023-08-31T03:10:41;15.45;;;10.13;;
35434;SDS011;21556;55.782;37.528;2023-08-31T03:13:13;13.93;;;9.60;;
35434;SDS011;21556;55.782;37.528;2023-08-31T03:15:40;15.90;;;9.82;;
35434;SDS011;21556;55.782;37.528;2023-08-31T03:18:06;12.18;;;9.63;;
35434;SDS011;21556;55.782;37.528;2023-08-31T03:20:32;15.43;;;10.07;;
35434;SDS011;21556;55.782;37.528;2023-08-31T03:25:32;16.25;;;9.85;;
35434;SDS011;21556;55.782;37.528;2023-08-31T03:27:58;18.38;;;11.00;;
35434;SDS011;21556;55.782;37.528;2023-08-31T03:30:25;13.27;;;9.57;;
35434;SDS011;21556;55.782;37.528;2023-08-31T03:32:51;14.27;;;9.77;;
35434;SDS011;21556;55.782;37.528;2023-08-31T03:35:17;16.25;;;9.80;;
35434;SDS011;21556;55.782;37.528;2023-08-31T03:37:46;15.80;;;10.43;;
35434;SDS011;21556;55.782;37.528;2023-08-31T03:40:13;14.65;;;9.50;;
35434;SDS011;21556;55.782;37.528;2023-08-31T03:42:39;14.60;;;10.90;;
35434;SDS011;21556;55.782;37.528;2023-08-31T03:45:40;16.45;;;9.98;;
35434;SDS011;21556;55.782;37.528;2023-08-31T03:48:32;14.40;;;10.57;;
35434;SDS011;21556;55.782;37.528;2023-08-31T03:51:19;12.30;;;9.57;;
35434;SDS011;21556;55.782;37.528;2023-08-31T03:53:54;15.95;;;10.23;;
35434;SDS011;21556;55.782;37.528;2023-08-31T03:56:22;15.80;;;10.32;;
35434;SDS011;21556;55.782;37.528;2023-08-31T03:58:53;14.27;;;10.73;;
35434;SDS011;21556;55.782;37.528;2023-08-31T04:01:19;18.05;;;11.93;;
35434;SDS011;21556;55.782;37.528;2023-08-31T04:03:48;15.60;;;10.52;;
35434;SDS011;21556;55.782;37.528;2023-08-31T04:06:22;14.68;;;11.27;;
35434;SDS011;21556;55.782;37.528;2023-08-31T04:08:48;16.40;;;11.00;;
35434;SDS011;21556;55.782;37.528;2023-08-31T04:11:14;15.30;;;11.00;;
35434;SDS011;21556;55.782;37.528;2023-08-31T04:13:41;16.08;;;12.07;;
35434;SDS011;21556;55.782;37.528;2023-08-31T04:16:07;14.98;;;11.00;;
35434;SDS011;21556;55.782;37.528;2023-08-31T04:18:41;17.27;;;11.68;;
35434;SDS011;21556;55.782;37.528;2023-08-31T04:21:08;15.90;;;11.85;;
35434;SDS011;21556;55.782;37.528;2023-08-31T04:23:37;15.98;;;12.05;;
35434;SDS011;21556;55.782;37.528;2023-08-31T04:26:12;17.30;;;12.38;;
35434;SDS011;21556;55.782;37.528;2023-08-31T04:28:40;15.93;;;11.77;;
35434;SDS011;21556;55.782;37.528;2023-08-31T04:33:37;17.20;;;11.80;;
35434;SDS011;21556;55.782;37.528;2023-08-31T04:36:07;19.38;;;12.23;;
35434;SDS011;21556;55.782;37.528;2023-08-31T04:38:34;20.35;;;12.13;;
35434;SDS011;21556;55.782;37.528;2023-08-31T04:41:00;18.27;;;12.07;;
35434;SDS011;21556;55.782;37.528;2023-08-31T04:43:30;16.75;;;12.02;;
35434;SDS011;21556;55.782;37.528;2023-08-31T04:45:56;15.38;;;11.40;;
35434;SDS011;21556;55.782;37.528;2023-08-31T04:48:23;16.60;;;11.35;;
35434;SDS011;21556;55.782;37.528;2023-08-31T04:50:55;16.98;;;11.80;;
35434;SDS011;21556;55.782;37.528;2023-08-31T04:53:27;16.15;;;12.05;;
35434;SDS011;21556;55.782;37.528;2023-08-31T04:55:53;16.10;;;12.07;;
35434;SDS011;21556;55.782;37.528;2023-08-31T04:58:19;17.85;;;12.30;;
35434;SDS011;21556;55.782;37.528;2023-08-31T05:00:45;17.70;;;11.93;;
35434;SDS011;21556;55.782;37.528;2023-08-31T05:03:15;17.35;;;11.52;;
35434;SDS011;21556;55.782;37.528;2023-08-31T05:05:41;19.20;;;12.00;;
35434;SDS011;21556;55.782;37.528;2023-08-31T05:08:08;21.40;;;12.00;;
35434;SDS011;21556;55.782;37.528;2023-08-31T05:10:37;18.02;;;13.00;;
35434;SDS011;21556;55.782;37.528;2023-08-31T05:13:03;21.02;;;13.05;;
35434;SDS011;21556;55.782;37.528;2023-08-31T05:15:30;18.97;;;12.53;;
35434;SDS011;21556;55.782;37.528;2023-08-31T05:20:25;19.60;;;13.18;;
35434;SDS011;21556;55.782;37.528;2023-08-31T05:25:26;17.60;;;12.90;;
35434;SDS011;21556;55.782;37.528;2023-08-31T05:27:52;17.02;;;13.20;;
35434;SDS011;21556;55.782;37.528;2023-08-31T05:30:18;17.08;;;13.20;;
35434;SDS011;21556;55.782;37.528;2023-08-31T05:32:44;21.38;;;13.65;;
35434;SDS011;21556;55.782;37.528;2023-08-31T05:35:10;19.67;;;13.77;;
35434;SDS011;21556;55.782;37.528;2023-08-31T05:37:37;19.35;;;14.07;;
35434;SDS011;21556;55.782;37.528;2023-08-31T05:40:03;22.00;;;13.70;;
35434;SDS011;21556;55.782;37.528;2023-08-31T05:42:35;20.00;;;12.73;;
35434;SDS011;21556;55.782;37.528;2023-08-31T05:45:01;17.60;;;13.70;;
35434;SDS011;21556;55.782;37.528;2023-08-31T05:47:29;21.83;;;12.18;;
35434;SDS011;21556;55.782;37.528;2023-08-31T05:49:55;23.38;;;13.40;;
35434;SDS011;21556;55.782;37.528;2023-08-31T05:52:21;21.73;;;13.32;;
35434;SDS011;21556;55.782;37.528;2023-08-31T05:57:18;19.98;;;13.52;;
35434;SDS011;21556;55.782;37.528;2023-08-31T05:59:45;17.42;;;12.05;;
35434;SDS011;21556;55.782;37.528;2023-08-31T06:02:14;17.48;;;12.50;;
35434;SDS011;21556;55.782;37.528;2023-08-31T06:04:41;16.00;;;12.32;;
35434;SDS011;21556;55.782;37.528;2023-08-31T06:07:10;19.30;;;11.70;;
35434;SDS011;21556;55.782;37.528;2023-08-31T06:09:36;15.43;;;11.23;;
35434;SDS011;21556;55.782;37.528;2023-08-31T06:12:04;16.65;;;11.35;;
35434;SDS011;21556;55.782;37.528;2023-08-31T06:14:34;18.77;;;11.93;;
35434;SDS011;21556;55.782;37.528;2023-08-31T06:17:00;19.83;;;11.57;;
35434;SDS011;21556;55.782;37.528;2023-08-31T06:19:26;17.60;;;10.88;;
35434;SDS011;21556;55.782;37.528;2023-08-31T06:21:55;20.58;;;10.30;;
35434;SDS011;21556;55.782;37.528;2023-08-31T06:24:21;14.07;;;9.88;;
35434;SDS011;21556;55.782;37.528;2023-08-31T06:26:47;14.50;;;10.15;;
35434;SDS011;21556;55.782;37.528;2023-08-31T06:29:13;17.00;;;10.50;;
35434;SDS011;21556;55.782;37.528;2023-08-31T06:31:43;14.10;;;9.50;;
35434;SDS011;21556;55.782;37.528;2023-08-31T06:34:12;14.57;;;9.55;;
35434;SDS011;21556;55.782;37.528;2023-08-31T06:36:38;12.90;;;9.10;;
35434;SDS011;21556;55.782;37.528;2023-08-31T06:39:05;16.15;;;10.25;;
35434;SDS011;21556;55.782;37.528;2023-08-31T06:41:31;12.63;;;9.05;;
35434;SDS011;21556;55.782;37.528;2023-08-31T06:43:57;16.55;;;10.10;;
35434;SDS011;21556;55.782;37.528;2023-08-31T06:46:23;13.60;;;8.38;;
35434;SDS011;21556;55.782;37.528;2023-08-31T06:48:50;11.45;;;8.93;;
35434;SDS011;21556;55.782;37.528;2023-08-31T06:51:16;14.90;;;8.85;;
35434;SDS011;21556;55.782;37.528;2023-08-31T06:53:42;11.13;;;8.30;;
35434;SDS011;21556;55.782;37.528;2023-08-31T06:56:15;13.48;;;7.75;;
35434;SDS011;21556;55.782;37.528;2023-08-31T06:58:43;19.90;;;8.30;;
35434;SDS011;21556;55.782;37.528;2023-08-31T07:01:12;9.50;;;7.68;;
35434;SDS011;21556;55.782;37.528;2023-08-31T07:03:41;24.55;;;8.40;;
35434;SDS011;21556;55.782;37.528;2023-08-31T07:06:08;11.55;;;8.20;;
35434;SDS011;21556;55.782;37.528;2023-08-31T07:08:34;13.52;;;8.55;;
35434;SDS011;21556;55.782;37.528;2023-08-31T07:11:02;14.15;;;7.75;;
35434;SDS011;21556;55.782;37.528;2023-08-31T07:13:28;13.27;;;8.18;;
35434;SDS011;21556;55.782;37.528;2023-08-31T07:15:55;13.52;;;8.23;;
35434;SDS011;21556;55.782;37.528;2023-08-31T07:18:21;15.60;;;9.20;;
35434;SDS011;21556;55.782;37.528;2023-08-31T07:20:47;11.15;;;7.82;;
35434;SDS011;21556;55.782;37.528;2023-08-31T07:23:13;15.82;;;8.73;;
35434;SDS011;21556;55.782;37.528;2023-08-31T07:25:39;18.38;;;9.93;;
35434;SDS011;21556;55.782;37.528;2023-08-31T07:28:08;17.45;;;9.73;;
35434;SDS011;21556;55.782;37.528;2023-08-31T07:30:40;13.75;;;9.75;;
35434;SDS011;21556;55.782;37.528;2023-08-31T07:33:07;13.60;;;9.02;;
35434;SDS011;21556;55.782;37.528;2023-08-31T07:35:33;13.75;;;10.10;;
35434;SDS011;21556;55.782;37.528;2023-08-31T07:37:59;12.43;;;9.27;;
35434;SDS011;21556;55.782;37.528;2023-08-31T07:40:24;12.65;;;9.52;;
35434;SDS011;21556;55.782;37.528;2023-08-31T07:42:51;10.90;;;8.90;;
35434;SDS011;21556;55.782;37.528;2023-08-31T07:45:17;18.08;;;9.93;;
35434;SDS011;21556;55.782;37.528;2023-08-31T07:47:43;10.15;;;8.68;;
35434;SDS011;21556;55.782;37.528;2023-08-31T07:50:10;12.77;;;8.68;;
35434;SDS011;21556;55.782;37.528;2023-08-31T07:52:35;12.00;;;8.15;;
35434;SDS011;21556;55.782;37.528;2023-08-31T07:57:43;16.95;;;9.13;;
35434;SDS011;21556;55.782;37.528;2023-08-31T08:00:12;17.08;;;9.40;;
35434;SDS011;21556;55.782;37.528;2023-08-31T08:02:40;14.25;;;8.25;;
35434;SDS011;21556;55.782;37.528;2023-08-31T08:05:11;15.10;;;8.50;;
35434;SDS011;21556;55.782;37.528;2023-08-31T08:07:39;12.63;;;7.60;;
35434;SDS011;21556;55.782;37.528;2023-08-31T08:10:11;15.85;;;7.78;;
35434;SDS011;21556;55.782;37.528;2023-08-31T08:12:46;14.13;;;8.18;;
35434;SDS011;21556;55.782;37.528;2023-08-31T08:15:17;14.23;;;8.90;;
35434;SDS011;21556;55.782;37.528;2023-08-31T08:18:04;15.38;;;7.90;;
35434;SDS011;21556;55.782;37.528;2023-08-31T08:20:30;13.63;;;8.40;;
35434;SDS011;21556;55.782;37.528;2023-08-31T08:22:57;14.03;;;7.90;;
35434;SDS011;21556;55.782;37.528;2023-08-31T08:25:24;14.18;;;8.35;;
35434;SDS011;21556;55.782;37.528;2023-08-31T08:27:50;11.55;;;7.47;;
35434;SDS011;21556;55.782;37.528;2023-08-31T08:30:16;14.48;;;7.55;;
35434;SDS011;21556;55.782;37.528;2023-08-31T08:32:45;10.73;;;7.47;;
35434;SDS011;21556;55.782;37.528;2023-08-31T08:35:11;10.52;;;8.43;;
35434;SDS011;21556;55.782;37.528;2023-08-31T08:37:37;9.48;;;7.25;;
35434;SDS011;21556;55.782;37.528;2023-08-31T08:40:03;12.88;;;7.32;;
35434;SDS011;21556;55.782;37.528;2023-08-31T08:42:30;12.07;;;7.55;;
35434;SDS011;21556;55.782;37.528;2023-08-31T08:44:57;15.85;;;7.68;;
35434;SDS011;21556;55.782;37.528;2023-08-31T08:47:26;10.82;;;6.85;;
35434;SDS011;21556;55.782;37.528;2023-08-31T08:49:53;10.50;;;6.70;;
35434;SDS011;21556;55.782;37.528;2023-08-31T08:55:14;15.35;;;7.90;;
35434;SDS011;21556;55.782;37.528;2023-08-31T08:57:44;7.95;;;7.13;;
35434;SDS011;21556;55.782;37.528;2023-08-31T09:00:13;10.73;;;7.43;;
35434;SDS011;21556;55.782;37.528;2023-08-31T09:02:40;9.98;;;7.20;;
35434;SDS011;21556;55.782;37.528;2023-08-31T09:05:13;10.88;;;6.38;;
35434;SDS011;21556;55.782;37.528;2023-08-31T09:07:47;10.75;;;7.22;;
35434;SDS011;21556;55.782;37.528;2023-08-31T09:10:33;12.23;;;6.00;;
35434;SDS011;21556;55.782;37.528;2023-08-31T09:13:01;8.68;;;7.45;;
35434;SDS011;21556;55.782;37.528;2023-08-31T09:15:41;10.70;;;6.88;;
35434;SDS011;21556;55.782;37.528;2023-08-31T09:21:06;6.95;;;5.57;;
35434;SDS011;21556;55.782;37.528;2023-08-31T09:23:36;7.53;;;5.75;;
35434;SDS011;21556;55.782;37.528;2023-08-31T09:26:03;8.55;;;6.28;;
35434;SDS011;21556;55.782;37.528;2023-08-31T09:28:30;14.65;;;6.05;;
35434;SDS011;21556;55.782;37.528;2023-08-31T09:31:05;9.65;;;6.93;;
35434;SDS011;21556;55.782;37.528;2023-08-31T09:33:32;9.60;;;5.78;;
35434;SDS011;21556;55.782;37.528;2023-08-31T09:36:02;12.73;;;7.10;;
35434;SDS011;21556;55.782;37.528;2023-08-31T09:38:36;8.05;;;5.68;;
35434;SDS011;21556;55.782;37.528;2023-08-31T09:43:33;9.32;;;5.63;;
35434;SDS011;21556;55.782;37.528;2023-08-31T09:46:02;10.90;;;5.93;;
35434;SDS011;21556;55.782;37.528;2023-08-31T09:48:30;10.48;;;5.57;;
35434;SDS011;21556;55.782;37.528;2023-08-31T09:50:57;16.37;;;6.67;;
35434;SDS011;21556;55.782;37.528;2023-08-31T09:53:24;8.90;;;6.13;;
35434;SDS011;21556;55.782;37.528;2023-08-31T09:55:50;13.47;;;6.07;;
35434;SDS011;21556;55.782;37.528;2023-08-31T09:58:22;13.20;;;5.88;;
35434;SDS011;21556;55.782;37.528;2023-08-31T10:00:50;8.18;;;5.50;;
35434;SDS011;21556;55.782;37.528;2023-08-31T10:03:17;8.05;;;6.00;;
35434;SDS011;21556;55.782;37.528;2023-08-31T10:05:49;9.63;;;6.35;;
35434;SDS011;21556;55.782;37.528;2023-08-31T10:08:15;9.10;;;5.25;;
35434;SDS011;21556;55.782;37.528;2023-08-31T10:10:44;11.98;;;5.20;;
35434;SDS011;21556;55.782;37.528;2023-08-31T10:13:15;11.57;;;5.80;;
35434;SDS011;21556;55.782;37.528;2023-08-31T10:15:43;8.32;;;5.72;;
35434;SDS011;21556;55.782;37.528;2023-08-31T10:18:09;9.40;;;5.95;;
35434;SDS011;21556;55.782;37.528;2023-08-31T10:20:37;7.05;;;4.93;;
35434;SDS011;21556;55.782;37.528;2023-08-31T10:23:11;9.77;;;5.38;;
35434;SDS011;21556;55.782;37.528;2023-08-31T10:31:04;13.25;;;6.13;;
35434;SDS011;21556;55.782;37.528;2023-08-31T10:33:33;10.20;;;5.50;;
35434;SDS011;21556;55.782;37.528;2023-08-31T10:38:29;11.35;;;5.80;;
35434;SDS011;21556;55.782;37.528;2023-08-31T10:41:00;12.30;;;5.40;;
35434;SDS011;21556;55.782;37.528;2023-08-31T10:43:48;7.45;;;5.90;;
35434;SDS011;21556;55.782;37.528;2023-08-31T10:46:30;6.57;;;5.25;;
35434;SDS011;21556;55.782;37.528;2023-08-31T10:48:59;8.07;;;5.50;;
35434;SDS011;21556;55.782;37.528;2023-08-31T10:51:35;7.80;;;5.70;;
35434;SDS011;21556;55.782;37.528;2023-08-31T10:54:11;8.65;;;6.00;;
35434;SDS011;21556;55.782;37.528;2023-08-31T10:56:51;10.35;;;5.90;;
35434;SDS011;21556;55.782;37.528;2023-08-31T10:59:47;7.70;;;5.95;;
35434;SDS011;21556;55.782;37.528;2023-08-31T11:02:34;10.88;;;7.40;;
35434;SDS011;21556;55.782;37.528;2023-08-31T11:07:33;10.52;;;6.15;;
35434;SDS011;21556;55.782;37.528;2023-08-31T11:12:34;9.68;;;6.43;;
35434;SDS011;21556;55.782;37.528;2023-08-31T11:14:59;12.60;;;6.57;;
35434;SDS011;21556;55.782;37.528;2023-08-31T11:17:27;13.60;;;6.57;;
35434;SDS011;21556;55.782;37.528;2023-08-31T11:19:53;9.25;;;5.85;;
35434;SDS011;21556;55.782;37.528;2023-08-31T11:22:19;14.35;;;5.88;;
35434;SDS011;21556;55.782;37.528;2023-08-31T11:24:45;10.25;;;5.82;;
35434;SDS011;21556;55.782;37.528;2023-08-31T11:27:15;9.05;;;5.80;;
35434;SDS011;21556;55.782;37.528;2023-08-31T11:30:16;11.80;;;5.78;;
35434;SDS011;21556;55.782;37.528;2023-08-31T11:32:46;8.98;;;5.38;;
35434;SDS011;21556;55.782;37.528;2023-08-31T11:35:14;10.82;;;6.18;;
35434;SDS011;21556;55.782;37.528;2023-08-31T11:37:45;10.85;;;5.82;;
35434;SDS011;21556;55.782;37.528;2023-08-31T11:40:15;12.30;;;5.32;;
35434;SDS011;21556;55.782;37.528;2023-08-31T11:42:41;8.10;;;5.70;;
35434;SDS011;21556;55.782;37.528;2023-08-31T11:45:07;11.65;;;5.60;;
35434;SDS011;21556;55.782;37.528;2023-08-31T11:47:38;9.00;;;5.28;;
35434;SDS011;21556;55.782;37.528;2023-08-31T11:50:06;8.55;;;5.57;;
35434;SDS011;21556;55.782;37.528;2023-08-31T11:52:33;9.00;;;6.67;;
35434;SDS011;21556;55.782;37.528;2023-08-31T11:54:59;10.80;;;6.15;;
35434;SDS011;21556;55.782;37.528;2023-08-31T11:57:26;9.20;;;5.80;;
35434;SDS011;21556;55.782;37.528;2023-08-31T11:59:54;10.73;;;5.80;;
35434;SDS011;21556;55.782;37.528;2023-08-31T12:02:24;7.10;;;5.40;;
35434;SDS011;21556;55.782;37.528;2023-08-31T12:04:50;10.40;;;5.50;;
35434;SDS011;21556;55.782;37.528;2023-08-31T12:07:16;11.60;;;5.68;;
35434;SDS011;21556;55.782;37.528;2023-08-31T12:09:44;9.25;;;5.50;;
35434;SDS011;21556;55.782;37.528;2023-08-31T12:12:13;11.87;;;5.93;;
35434;SDS011;21556;55.782;37.528;2023-08-31T12:14:47;8.23;;;5.28;;
35434;SDS011;21556;55.782;37.528;2023-08-31T12:17:49;12.05;;;6.07;;
35434;SDS011;21556;55.782;37.528;2023-08-31T12:20:26;9.05;;;5.35;;
35434;SDS011;21556;55.782;37.528;2023-08-31T12:23:27;8.13;;;5.78;;
35434;SDS011;21556;55.782;37.528;2023-08-31T12:27:09;12.02;;;5.90;;
35434;SDS011;21556;55.782;37.528;2023-08-31T12:29:39;12.82;;;5.82;;
35434;SDS011;21556;55.782;37.528;2023-08-31T12:32:05;9.65;;;5.50;;
35434;SDS011;21556;55.782;37.528;2023-08-31T12:34:41;15.60;;;6.28;;
35434;SDS011;21556;55.782;37.528;2023-08-31T12:37:41;12.73;;;6.30;;
35434;SDS011;21556;55.782;37.528;2023-08-31T12:44:02;10.23;;;5.85;;
35434;SDS011;21556;55.782;37.528;2023-08-31T12:46:52;8.68;;;5.53;;
35434;SDS011;21556;55.782;37.528;2023-08-31T12:49:20;12.18;;;5.85;;
35434;SDS011;21556;55.782;37.528;2023-08-31T12:51:50;10.10;;;5.70;;
35434;SDS011;21556;55.782;37.528;2023-08-31T12:54:17;9.25;;;5.88;;
35434;SDS011;21556;55.782;37.528;2023-08-31T12:56:43;12.13;;;5.80;;
35434;SDS011;21556;55.782;37.528;2023-08-31T12:59:09;10.85;;;6.72;;
35434;SDS011;21556;55.782;37.528;2023-08-31T13:01:36;10.93;;;5.80;;
35434;SDS011;21556;55.782;37.528;2023-08-31T13:04:02;10.85;;;5.53;;
35434;SDS011;21556;55.782;37.528;2023-08-31T13:06:28;8.98;;;5.40;;
35434;SDS011;21556;55.782;37.528;2023-08-31T13:08:54;9.85;;;5.43;;
35434;SDS011;21556;55.782;37.528;2023-08-31T13:11:20;8.45;;;5.03;;
35434;SDS011;21556;55.782;37.528;2023-08-31T13:13:49;11.63;;;5.15;;
35434;SDS011;21556;55.782;37.528;2023-08-31T13:16:18;8.82;;;5.28;;
35434;SDS011;21556;55.782;37.528;2023-08-31T13:18:48;10.50;;;5.43;;
35434;SDS011;21556;55.782;37.528;2023-08-31T13:21:14;13.40;;;7.22;;
35434;SDS011;21556;55.782;37.528;2023-08-31T13:23:41;12.40;;;5.20;;
35434;SDS011;21556;55.782;37.528;2023-08-31T13:26:09;7.97;;;5.70;;
35434;SDS011;21556;55.782;37.528;2023-08-31T13:28:37;9.00;;;5.30;;
35434;SDS011;21556;55.782;37.528;2023-08-31T13:31:06;8.48;;;5.65;;
35434;SDS011;21556;55.782;37.528;2023-08-31T13:33:33;13.45;;;5.55;;
35434;SDS011;21556;55.782;37.528;2023-08-31T13:36:02;9.32;;;5.80;;
35434;SDS011;21556;55.782;37.528;2023-08-31T13:38:32;9.15;;;5.30;;
35434;SDS011;21556;55.782;37.528;2023-08-31T13:40:58;8.25;;;4.78;;
35434;SDS011;21556;55.782;37.528;2023-08-31T13:43:24;11.10;;;5.18;;
35434;SDS011;21556;55.782;37.528;2023-08-31T13:45:51;11.40;;;5.72;;
35434;SDS011;21556;55.782;37.528;2023-08-31T13:48:18;7.15;;;5.25;;
35434;SDS011;21556;55.782;37.528;2023-08-31T13:50:46;13.20;;;5.78;;
35434;SDS011;21556;55.782;37.528;2023-08-31T13:53:17;13.93;;;5.85;;
35434;SDS011;21556;55.782;37.528;2023-08-31T13:55:49;11.55;;;5.07;;
35434;SDS011;21556;55.782;37.528;2023-08-31T13:58:15;9.35;;;5.18;;
35434;SDS011;21556;55.782;37.528;2023-08-31T14:00:41;9.77;;;5.18;;
35434;SDS011;21556;55.782;37.528;2023-08-31T14:03:07;9.98;;;5.03;;
35434;SDS011;21556;55.782;37.528;2023-08-31T14:05:36;14.15;;;5.68;;
35434;SDS011;21556;55.782;37.528;2023-08-31T14:08:07;18.52;;;5.88;;
35434;SDS011;21556;55.782;37.528;2023-08-31T14:10:46;12.75;;;5.13;;
35434;SDS011;21556;55.782;37.528;2023-08-31T14:17:20;11.68;;;5.32;;
35434;SDS011;21556;55.782;37.528;2023-08-31T14:19:58;11.15;;;5.65;;
35434;SDS011;21556;55.782;37.528;2023-08-31T14:22:34;8.65;;;5.32;;
35434;SDS011;21556;55.782;37.528;2023-08-31T14:25:21;14.73;;;5.77;;
35434;SDS011;21556;55.782;37.528;2023-08-31T14:30:26;7.20;;;5.00;;
35434;SDS011;21556;55.782;37.528;2023-08-31T14:32:55;9.68;;;5.90;;
35434;SDS011;21556;55.782;37.528;2023-08-31T14:35:21;8.55;;;5.15;;
35434;SDS011;21556;55.782;37.528;2023-08-31T14:37:48;9.68;;;5.55;;
35434;SDS011;21556;55.782;37.528;2023-08-31T14:40:14;8.18;;;5.60;;
35434;SDS011;21556;55.782;37.528;2023-08-31T14:42:41;10.30;;;5.80;;
35434;SDS011;21556;55.782;37.528;2023-08-31T14:45:13;10.48;;;5.57;;
35434;SDS011;21556;55.782;37.528;2023-08-31T14:47:48;8.63;;;4.90;;
35434;SDS011;21556;55.782;37.528;2023-08-31T14:50:17;7.25;;;5.75;;
35434;SDS011;21556;55.782;37.528;2023-08-31T14:52:43;9.68;;;5.75;;
35434;SDS011;21556;55.782;37.528;2023-08-31T14:55:12;10.45;;;6.53;;
35434;SDS011;21556;55.782;37.528;2023-08-31T14:57:45;9.43;;;5.93;;
35434;SDS011;21556;55.782;37.528;2023-08-31T15:00:19;12.07;;;5.68;;
35434;SDS011;21556;55.782;37.528;2023-08-31T15:02:46;10.75;;;6.13;;
35434;SDS011;21556;55.782;37.528;2023-08-31T15:05:13;8.80;;;5.70;;
35434;SDS011;21556;55.782;37.528;2023-08-31T15:07:40;11.30;;;5.60;;
35434;SDS011;21556;55.782;37.528;2023-08-31T15:10:14;9.77;;;6.10;;
35434;SDS011;21556;55.782;37.528;2023-08-31T15:12:42;15.48;;;5.72;;
35434;SDS011;21556;55.782;37.528;2023-08-31T15:15:20;8.38;;;6.15;;
35434;SDS011;21556;55.782;37.528;2023-08-31T15:17:49;16.13;;;6.25;;
35434;SDS011;21556;55.782;37.528;2023-08-31T15:20:15;10.32;;;6.10;;
35434;SDS011;21556;55.782;37.528;2023-08-31T15:22:45;8.35;;;5.60;;
35434;SDS011;21556;55.782;37.528;2023-08-31T15:25:11;9.43;;;5.85;;